createdAt,value
2023-04-08T00:00:33.616Z,7.63
2023-04-08T00:01:36.555Z,6.75
2023-04-08T00:02:38.809Z,6.85
2023-04-08T00:03:41.688Z,7.05
2023-04-08T00:04:43.573Z,6.75
2023-04-08T00:05:46.385Z,7.10
2023-04-08T00:06:47.902Z,6.70
2023-04-08T00:07:50.393Z,6.00
2023-04-08T00:08:53.186Z,5.95
2023-04-08T00:09:55.730Z,6.38
2023-04-08T00:10:57.415Z,6.32
2023-04-08T00:11:59.936Z,6.50
2023-04-08T00:13:01.454Z,5.72
2023-04-08T00:14:04.546Z,6.35
2023-04-08T00:15:06.935Z,5.45
2023-04-08T00:16:09.404Z,6.10
2023-04-08T00:17:11.187Z,5.78
2023-04-08T00:18:15.055Z,5.25
2023-04-08T00:19:16.826Z,5.75
2023-04-08T00:20:19.462Z,5.72
2023-04-08T00:21:21.197Z,5.68
2023-04-08T00:22:24.270Z,5.45
2023-04-08T00:23:25.965Z,5.40
2023-04-08T00:24:29.875Z,5.30
2023-04-08T00:25:31.617Z,5.10
2023-04-08T00:26:34.131Z,4.95
2023-04-08T00:27:35.714Z,4.82
2023-04-08T00:28:38.511Z,5.30
2023-04-08T00:29:40.447Z,4.90
2023-04-08T00:30:42.940Z,5.10
2023-04-08T00:31:44.551Z,5.35
2023-04-08T00:32:47.115Z,4.82
2023-04-08T00:33:48.614Z,5.20
2023-04-08T00:34:51.018Z,5.15
2023-04-08T00:35:53.568Z,5.05
2023-04-08T00:36:56.339Z,5.32
2023-04-08T00:37:58.801Z,5.60
2023-04-08T00:39:00.322Z,4.82
2023-04-08T00:40:05.675Z,5.07
2023-04-08T00:41:07.167Z,5.35
2023-04-08T00:42:09.752Z,4.85
2023-04-08T00:43:11.602Z,4.95
2023-04-08T00:44:14.048Z,5.32
2023-04-08T00:45:15.968Z,4.82
2023-04-08T00:46:18.457Z,4.38
2023-04-08T00:47:20.483Z,4.80
2023-04-08T00:48:22.970Z,4.95
2023-04-08T00:49:24.519Z,4.68
2023-04-08T00:50:27.019Z,5.65
2023-04-08T00:51:28.657Z,5.53
2023-04-08T00:52:31.330Z,5.10
2023-04-08T00:53:32.839Z,5.10
2023-04-08T00:54:37.911Z,5.10
2023-04-08T00:55:40.900Z,5.10
2023-04-08T00:56:44.715Z,5.60
2023-04-08T00:57:46.961Z,4.93
2023-04-08T00:58:51.081Z,5.15
2023-04-08T00:59:52.938Z,5.68
2023-04-08T01:01:01.150Z,4.93
2023-04-08T01:02:13.472Z,5.30
2023-04-08T01:03:20.813Z,5.30
2023-04-08T01:04:29.739Z,5.20
2023-04-08T01:05:52.580Z,5.35
2023-04-08T01:07:00.583Z,4.78
2023-04-08T01:08:06.270Z,4.88
2023-04-08T01:09:10.031Z,4.70
2023-04-08T01:10:15.607Z,5.20
2023-04-08T01:11:21.392Z,5.93
2023-04-08T01:12:27.384Z,5.65
2023-04-08T01:13:35.598Z,5.20
2023-04-08T01:14:42.420Z,5.22
2023-04-08T01:15:46.134Z,5.47
2023-04-08T01:16:48.001Z,5.18
2023-04-08T01:17:54.065Z,5.35
2023-04-08T01:18:56.528Z,4.85
2023-04-08T01:20:01.682Z,5.03
2023-04-08T01:21:05.245Z,5.45
2023-04-08T01:22:16.648Z,5.32
2023-04-08T01:23:24.167Z,5.35
2023-04-08T01:24:29.722Z,5.47
2023-04-08T01:25:34.218Z,4.90
2023-04-08T01:26:38.170Z,5.70
2023-04-08T01:27:40.893Z,5.05
2023-04-08T01:28:44.281Z,4.90
2023-04-08T01:29:49.022Z,4.50
2023-04-08T01:30:52.516Z,4.88
2023-04-08T01:31:55.533Z,4.65
2023-04-08T01:33:00.532Z,5.30
2023-04-08T01:34:04.649Z,4.85
2023-04-08T01:35:08.841Z,4.93
2023-04-08T01:36:11.050Z,4.95
2023-04-08T01:37:15.976Z,5.35
2023-04-08T01:38:19.736Z,4.93
2023-04-08T01:39:22.513Z,5.20
2023-04-08T01:40:24.261Z,4.53
2023-04-08T01:41:26.751Z,4.85
2023-04-08T01:42:29.979Z,4.45
2023-04-08T01:43:35.118Z,4.55
2023-04-08T01:44:38.015Z,4.93
2023-04-08T01:45:40.530Z,5.00
2023-04-08T01:46:43.576Z,4.85
2023-04-08T01:47:48.284Z,5.07
2023-04-08T01:48:50.950Z,5.20
2023-04-08T01:49:54.296Z,5.15
2023-04-08T01:50:56.540Z,4.95
2023-04-08T01:52:00.068Z,5.18
2023-04-08T01:53:04.735Z,5.13
2023-04-08T01:54:07.747Z,5.07
2023-04-08T01:55:09.465Z,5.22
2023-04-08T01:56:14.273Z,4.90
2023-04-08T01:57:19.675Z,4.97
2023-04-08T01:58:24.148Z,5.07
2023-04-08T01:59:29.921Z,5.40
2023-04-08T02:00:33.470Z,5.03
2023-04-08T02:01:35.802Z,4.93
2023-04-08T02:02:40.117Z,4.50
2023-04-08T02:03:43.249Z,4.50
2023-04-08T02:04:46.063Z,4.63
2023-04-08T02:05:47.622Z,4.30
2023-04-08T02:06:50.720Z,4.30
2023-04-08T02:07:52.276Z,4.50
2023-04-08T02:08:55.146Z,4.60
2023-04-08T02:09:56.846Z,4.75
2023-04-08T02:10:59.449Z,5.13
2023-04-08T02:12:01.443Z,4.80
2023-04-08T02:13:04.268Z,4.82
2023-04-08T02:14:07.109Z,4.60
2023-04-08T02:15:10.648Z,4.85
2023-04-08T02:16:18.546Z,4.30
2023-04-08T02:17:27.081Z,4.10
2023-04-08T02:18:28.738Z,4.18
2023-04-08T02:19:37.260Z,4.30
2023-04-08T02:20:43.846Z,4.60
2023-04-08T02:21:50.237Z,4.53
2023-04-08T02:23:00.841Z,4.25
2023-04-08T02:24:05.885Z,3.63
2023-04-08T02:25:12.333Z,4.82
2023-04-08T02:26:15.522Z,4.15
2023-04-08T02:27:19.194Z,4.47
2023-04-08T02:28:21.505Z,5.00
2023-04-08T02:29:26.017Z,4.88
2023-04-08T02:30:29.290Z,4.53
2023-04-08T02:31:32.437Z,4.60
2023-04-08T02:32:35.400Z,4.25
2023-04-08T02:33:39.881Z,4.88
2023-04-08T02:34:43.509Z,4.43
2023-04-08T02:35:46.407Z,4.55
2023-04-08T02:36:48.194Z,4.18
2023-04-08T02:37:51.210Z,4.25
2023-04-08T02:38:52.876Z,5.10
2023-04-08T02:39:55.331Z,4.90
2023-04-08T02:40:57.290Z,4.47
2023-04-08T02:41:59.772Z,5.07
2023-04-08T02:43:01.516Z,5.05
2023-04-08T02:44:03.983Z,4.68
2023-04-08T02:45:08.752Z,5.05
2023-04-08T02:46:12.532Z,4.45
2023-04-08T02:47:14.290Z,4.60
2023-04-08T02:48:16.705Z,4.78
2023-04-08T02:49:18.184Z,4.85
2023-04-08T02:50:20.761Z,4.88
2023-04-08T02:51:22.308Z,4.75
2023-04-08T02:52:24.715Z,5.50
2023-04-08T02:53:26.577Z,4.35
2023-04-08T02:54:29.086Z,5.20
2023-04-08T02:55:30.973Z,5.07
2023-04-08T02:56:33.417Z,5.20
2023-04-08T02:57:34.920Z,5.47
2023-04-08T02:58:37.390Z,5.28
2023-04-08T02:59:40.824Z,5.05
2023-04-08T03:00:44.653Z,5.18
2023-04-08T03:01:46.230Z,5.80
2023-04-08T03:02:49.066Z,5.05
2023-04-08T03:03:51.250Z,5.20
2023-04-08T03:04:53.810Z,5.50
2023-04-08T03:05:55.876Z,4.93
2023-04-08T03:06:58.308Z,5.70
2023-04-08T03:07:59.890Z,5.40
2023-04-08T03:09:02.394Z,5.35
2023-04-08T03:10:04.658Z,5.93
2023-04-08T03:11:07.112Z,5.70
2023-04-08T03:12:08.591Z,5.90
2023-04-08T03:13:11.166Z,5.68
2023-04-08T03:14:12.726Z,5.53
2023-04-08T03:15:15.217Z,5.70
2023-04-08T03:16:18.197Z,5.82
2023-04-08T03:17:20.757Z,5.68
2023-04-08T03:18:22.269Z,5.82
2023-04-08T03:19:24.842Z,5.85
2023-04-08T03:20:26.360Z,5.57
2023-04-08T03:21:31.654Z,5.65
2023-04-08T03:22:33.745Z,5.75
2023-04-08T03:23:36.226Z,5.45
2023-04-08T03:24:37.759Z,5.43
2023-04-08T03:25:40.326Z,5.78
2023-04-08T03:26:41.833Z,5.90
2023-04-08T03:27:44.368Z,5.80
2023-04-08T03:28:46.189Z,5.93
2023-04-08T03:29:48.906Z,6.05
2023-04-08T03:30:50.566Z,6.07
2023-04-08T03:31:54.383Z,5.35
2023-04-08T03:32:56.070Z,5.60
2023-04-08T03:33:58.582Z,6.47
2023-04-08T03:35:00.430Z,6.70
2023-04-08T03:36:02.964Z,5.97
2023-04-08T03:37:05.500Z,5.78
2023-04-08T03:38:07.048Z,6.43
2023-04-08T03:39:10.282Z,5.90
2023-04-08T03:40:12.828Z,5.63
2023-04-08T03:41:15.464Z,6.20
2023-04-08T03:42:16.961Z,6.53
2023-04-08T03:43:21.464Z,6.50
2023-04-08T03:44:23.000Z,6.28
2023-04-08T03:45:25.653Z,6.03
2023-04-08T03:46:27.210Z,6.40
2023-04-08T03:47:31.670Z,5.88
2023-04-08T03:48:33.246Z,6.47
2023-04-08T03:49:35.675Z,5.97
2023-04-08T03:50:37.270Z,6.22
2023-04-08T03:51:39.703Z,6.45
2023-04-08T03:52:41.234Z,6.65
2023-04-08T03:53:43.671Z,6.43
2023-04-08T03:54:45.222Z,6.32
2023-04-08T03:55:50.501Z,6.80
2023-04-08T03:56:52.009Z,6.60
2023-04-08T03:57:54.430Z,7.07
2023-04-08T03:58:55.956Z,6.88
2023-04-08T03:59:58.452Z,7.30
2023-04-08T04:01:00.117Z,6.53
2023-04-08T04:02:02.736Z,6.25
2023-04-08T04:03:06.626Z,6.20
2023-04-08T04:04:09.413Z,6.25
2023-04-08T04:05:11.053Z,7.07
2023-04-08T04:06:13.480Z,6.53
2023-04-08T04:07:14.977Z,7.10
2023-04-08T04:08:17.602Z,6.55
2023-04-08T04:09:19.154Z,6.50
2023-04-08T04:10:21.648Z,6.78
2023-04-08T04:11:23.228Z,6.30
2023-04-08T04:12:26.411Z,6.63
2023-04-08T04:13:28.027Z,6.35
2023-04-08T04:14:30.513Z,6.18
2023-04-08T04:15:32.116Z,6.40
2023-04-08T04:16:34.617Z,6.60
2023-04-08T04:17:36.194Z,6.32
2023-04-08T04:18:40.095Z,6.22
2023-04-08T04:19:41.603Z,6.13
2023-04-08T04:20:44.365Z,6.25
2023-04-08T04:21:46.035Z,6.18
2023-04-08T04:22:48.563Z,5.93
2023-04-08T04:23:50.044Z,5.93
2023-04-08T04:24:52.478Z,5.97
2023-04-08T04:25:54.070Z,6.70
2023-04-08T04:26:56.590Z,5.70
2023-04-08T04:27:58.131Z,6.00
2023-04-08T04:29:00.665Z,6.05
2023-04-08T04:30:02.646Z,7.00
2023-04-08T04:31:05.542Z,6.13
2023-04-08T04:32:07.058Z,6.18
2023-04-08T04:33:09.563Z,5.53
2023-04-08T04:34:12.410Z,5.93
2023-04-08T04:35:14.848Z,5.95
2023-04-08T04:36:16.333Z,6.20
2023-04-08T04:37:18.833Z,6.18
2023-04-08T04:38:20.404Z,6.80
2023-04-08T04:39:22.861Z,6.13
2023-04-08T04:40:24.386Z,6.53
2023-04-08T04:41:27.266Z,6.40
2023-04-08T04:42:28.785Z,6.45
2023-04-08T04:43:31.297Z,6.82
2023-04-08T04:44:33.099Z,6.22
2023-04-08T04:45:35.596Z,6.75
2023-04-08T04:46:38.098Z,6.20
2023-04-08T04:47:39.634Z,6.35
2023-04-08T04:48:42.386Z,6.40
2023-04-08T04:49:45.740Z,6.35
2023-04-08T04:50:55.991Z,6.53
2023-04-08T04:51:57.556Z,6.63
2023-04-08T04:53:00.562Z,6.10
2023-04-08T04:54:02.085Z,5.78
2023-04-08T04:55:04.914Z,5.95
2023-04-08T04:56:06.953Z,6.07
2023-04-08T04:57:10.993Z,5.53
2023-04-08T04:58:12.505Z,5.60
2023-04-08T04:59:14.990Z,5.70
2023-04-08T05:00:17.066Z,6.45
2023-04-08T05:01:19.599Z,6.53
2023-04-08T05:02:21.150Z,5.80
2023-04-08T05:03:23.814Z,6.38
2023-04-08T05:04:25.913Z,6.10
2023-04-08T05:05:29.663Z,5.78
2023-04-08T05:06:31.608Z,6.07
2023-04-08T05:07:36.745Z,5.57
2023-04-08T05:08:38.322Z,5.70
2023-04-08T05:09:40.783Z,5.60
2023-04-08T05:10:42.309Z,5.30
2023-04-08T05:11:44.743Z,5.32
2023-04-08T05:12:47.246Z,6.10
2023-04-08T05:13:48.797Z,5.50
2023-04-08T05:14:51.232Z,5.55
2023-04-08T05:15:53.749Z,5.55
2023-04-08T05:16:55.335Z,5.22
2023-04-08T05:17:57.826Z,5.20
2023-04-08T05:19:00.410Z,4.70
2023-04-08T05:20:02.243Z,5.20
2023-04-08T05:21:06.185Z,5.10
2023-04-08T05:22:07.669Z,4.88
2023-04-08T05:23:10.249Z,5.57
2023-04-08T05:24:11.848Z,5.13
2023-04-08T05:25:14.444Z,5.07
2023-04-08T05:26:16.549Z,5.10
2023-04-08T05:27:19.197Z,5.78
2023-04-08T05:28:20.938Z,5.32
2023-04-08T05:29:23.375Z,5.97
2023-04-08T05:30:24.870Z,5.55
2023-04-08T05:31:27.669Z,5.78
2023-04-08T05:32:30.130Z,5.75
2023-04-08T05:33:32.606Z,5.82
2023-04-08T05:34:34.105Z,5.95
2023-04-08T05:35:36.891Z,5.88
2023-04-08T05:36:39.759Z,5.80
2023-04-08T05:37:42.186Z,5.72
2023-04-08T05:38:44.320Z,5.72
2023-04-08T05:39:46.812Z,5.97
2023-04-08T05:40:48.339Z,5.90
2023-04-08T05:41:50.987Z,5.72
2023-04-08T05:42:52.500Z,5.97
2023-04-08T05:43:54.941Z,6.15
2023-04-08T05:44:57.346Z,5.93
2023-04-08T05:45:58.932Z,6.65
2023-04-08T05:47:01.466Z,5.40
2023-04-08T05:48:03.074Z,5.63
2023-04-08T05:49:05.614Z,6.30
2023-04-08T05:50:08.516Z,5.40
2023-04-08T05:51:14.898Z,6.07
2023-04-08T05:52:17.798Z,6.07
2023-04-08T05:53:20.406Z,5.80
2023-04-08T05:54:22.036Z,6.07
2023-04-08T05:55:24.702Z,5.80
2023-04-08T05:56:26.465Z,6.20
2023-04-08T05:57:28.932Z,6.05
2023-04-08T05:58:30.433Z,6.05
2023-04-08T05:59:32.891Z,5.85
2023-04-08T06:00:34.706Z,6.22
2023-04-08T06:01:37.382Z,5.63
2023-04-08T06:02:39.250Z,6.13
2023-04-08T06:03:41.966Z,5.75
2023-04-08T06:04:43.827Z,5.47
2023-04-08T06:05:46.470Z,5.97
2023-04-08T06:06:48.156Z,5.90
2023-04-08T06:07:52.085Z,5.85
2023-04-08T06:08:53.675Z,5.22
2023-04-08T06:09:56.302Z,5.53
2023-04-08T06:10:58.753Z,5.88
2023-04-08T06:12:00.255Z,5.97
2023-04-08T06:13:02.734Z,5.63
2023-04-08T06:14:04.265Z,5.90
2023-04-08T06:15:08.179Z,5.65
2023-04-08T06:16:14.895Z,5.65
2023-04-08T06:17:17.452Z,5.60
2023-04-08T06:18:18.968Z,5.82
2023-04-08T06:19:21.474Z,5.57
2023-04-08T06:20:23.064Z,5.70
2023-04-08T06:21:25.752Z,5.85
2023-04-08T06:22:27.447Z,5.70
2023-04-08T06:23:31.756Z,6.25
2023-04-08T06:24:34.040Z,5.68
2023-04-08T06:25:36.537Z,5.65
2023-04-08T06:26:39.010Z,6.28
2023-04-08T06:27:40.531Z,6.30
2023-04-08T06:28:43.037Z,5.75
2023-04-08T06:29:44.601Z,5.28
2023-04-08T06:30:47.098Z,5.63
2023-04-08T06:31:48.831Z,5.75
2023-04-08T06:32:51.353Z,5.40
2023-04-08T06:33:52.887Z,5.75
2023-04-08T06:34:55.398Z,6.20
2023-04-08T06:36:04.057Z,6.80
2023-04-08T06:37:07.069Z,6.47
2023-04-08T06:38:08.564Z,6.72
2023-04-08T06:39:12.442Z,4.90
2023-04-08T06:40:13.972Z,5.57
2023-04-08T06:41:16.459Z,5.63
2023-04-08T06:42:17.973Z,5.38
2023-04-08T06:43:20.457Z,5.60
2023-04-08T06:44:21.996Z,5.60
2023-04-08T06:45:24.462Z,5.95
2023-04-08T06:46:26.560Z,5.60
2023-04-08T06:47:29.112Z,5.43
2023-04-08T06:48:31.033Z,5.70
2023-04-08T06:49:33.600Z,6.07
2023-04-08T06:50:35.112Z,6.07
2023-04-08T06:51:37.794Z,5.85
2023-04-08T06:52:39.329Z,5.57
2023-04-08T06:53:42.001Z,6.28
2023-04-08T06:54:44.901Z,6.60
2023-04-08T06:55:47.386Z,5.93
2023-04-08T06:56:48.917Z,6.15
2023-04-08T06:57:51.391Z,6.40
2023-04-08T06:58:53.307Z,6.28
2023-04-08T06:59:56.056Z,6.57
2023-04-08T07:01:00.617Z,6.25
2023-04-08T07:02:02.300Z,6.20
2023-04-08T07:03:05.190Z,6.25
2023-04-08T07:04:06.743Z,6.50
2023-04-08T07:05:10.054Z,6.28
2023-04-08T07:06:11.631Z,6.18
2023-04-08T07:07:14.094Z,6.63
2023-04-08T07:08:15.726Z,6.45
2023-04-08T07:09:18.239Z,5.65
2023-04-08T07:10:21.299Z,6.20
2023-04-08T07:11:23.806Z,6.55
2023-04-08T07:12:25.332Z,6.20
2023-04-08T07:13:27.833Z,5.78
2023-04-08T07:14:29.883Z,6.35
2023-04-08T07:15:32.488Z,5.50
2023-04-08T07:16:34.042Z,5.70
2023-04-08T07:17:36.999Z,5.50
2023-04-08T07:18:41.405Z,14.13
2023-04-08T07:19:44.149Z,23.77
2023-04-08T07:20:46.616Z,9.85
2023-04-08T07:21:48.334Z,6.18
2023-04-08T07:22:51.025Z,6.35
2023-04-08T07:23:53.472Z,5.85
2023-04-08T07:24:55.457Z,5.53
2023-04-08T07:26:03.242Z,5.80
2023-04-08T07:27:04.875Z,5.20
2023-04-08T07:28:07.316Z,5.65
2023-04-08T07:29:09.929Z,5.55
2023-04-08T07:30:12.732Z,5.97
2023-04-08T07:31:16.892Z,5.65
2023-04-08T07:32:19.375Z,5.78
2023-04-08T07:33:24.055Z,5.45
2023-04-08T07:34:26.505Z,6.18
2023-04-08T07:35:28.368Z,6.45
2023-04-08T07:36:30.858Z,6.75
2023-04-08T07:37:32.519Z,6.72
2023-04-08T07:38:35.395Z,6.10
2023-04-08T07:39:36.916Z,6.47
2023-04-08T07:40:39.361Z,7.85
2023-04-08T07:41:43.175Z,8.15
2023-04-08T07:42:44.798Z,7.82
2023-04-08T07:43:47.375Z,7.80
2023-04-08T07:44:50.392Z,8.73
2023-04-08T07:45:52.102Z,9.07
2023-04-08T07:46:54.656Z,8.55
2023-04-08T07:47:56.307Z,8.98
2023-04-08T07:48:58.784Z,8.88
2023-04-08T07:50:01.517Z,9.07
2023-04-08T07:51:08.767Z,8.27
2023-04-08T07:52:13.298Z,9.05
2023-04-08T07:53:15.823Z,9.35
2023-04-08T07:54:18.476Z,8.70
2023-04-08T07:55:19.997Z,9.65
2023-04-08T07:56:22.508Z,8.55
2023-04-08T07:57:26.576Z,9.70
2023-04-08T07:58:28.302Z,10.65
2023-04-08T07:59:31.029Z,10.73
2023-04-08T08:00:33.294Z,10.98
2023-04-08T08:01:35.974Z,11.07
2023-04-08T08:02:37.561Z,11.23
2023-04-08T08:03:40.317Z,11.60
2023-04-08T08:04:43.057Z,10.93
2023-04-08T08:05:45.795Z,10.57
2023-04-08T08:06:47.520Z,9.80
2023-04-08T08:07:50.473Z,11.18
2023-04-08T08:08:53.022Z,13.07
2023-04-08T08:09:54.791Z,13.25
2023-04-08T08:10:57.319Z,14.25
2023-04-08T08:11:59.803Z,15.13
2023-04-08T08:13:02.946Z,14.48
2023-04-08T08:14:05.773Z,14.75
2023-04-08T08:15:09.717Z,14.80
2023-04-08T08:16:12.498Z,13.85
2023-04-08T08:17:14.421Z,14.80
2023-04-08T08:18:16.923Z,13.68
2023-04-08T08:19:18.521Z,14.25
2023-04-08T08:20:20.952Z,14.25
2023-04-08T08:21:22.495Z,14.80
2023-04-08T08:22:24.947Z,14.75
2023-04-08T08:23:28.068Z,14.02
2023-04-08T08:24:30.584Z,13.75
2023-04-08T08:25:32.612Z,12.77
2023-04-08T08:26:36.982Z,13.30
2023-04-08T08:27:41.114Z,13.63
2023-04-08T08:28:44.952Z,13.25
2023-04-08T08:29:46.436Z,12.40
2023-04-08T08:30:49.179Z,11.43
2023-04-08T08:31:51.705Z,11.90
2023-04-08T08:32:54.255Z,11.63
2023-04-08T08:33:55.996Z,12.05
2023-04-08T08:34:58.448Z,11.65
2023-04-08T08:36:00.273Z,11.68
2023-04-08T08:37:02.780Z,11.02
2023-04-08T08:38:05.220Z,10.80
2023-04-08T08:39:07.751Z,11.13
2023-04-08T08:40:10.470Z,11.38
2023-04-08T08:41:13.157Z,11.45
2023-04-08T08:42:22.198Z,11.30
2023-04-08T08:43:25.721Z,11.60
2023-04-08T08:44:30.821Z,12.00
2023-04-08T08:45:33.491Z,11.32
2023-04-08T08:46:36.301Z,11.77
2023-04-08T08:47:38.345Z,11.82
2023-04-08T08:48:40.885Z,12.38
2023-04-08T08:49:42.720Z,11.00
2023-04-08T08:50:45.600Z,11.38
2023-04-08T08:51:49.088Z,13.05
2023-04-08T08:52:51.356Z,12.13
2023-04-08T08:53:54.158Z,12.48
2023-04-08T08:54:58.227Z,12.13
2023-04-08T08:56:17.275Z,12.68
2023-04-08T08:57:21.471Z,13.45
2023-04-08T08:58:26.714Z,12.18
2023-04-08T08:59:30.481Z,13.18
2023-04-08T09:00:34.490Z,12.38
2023-04-08T09:01:38.984Z,12.98
2023-04-08T09:02:40.830Z,12.70
2023-04-08T09:03:43.713Z,12.13
2023-04-08T09:04:56.728Z,13.45
2023-04-08T09:06:02.049Z,13.27
2023-04-08T09:07:10.044Z,12.75
2023-04-08T09:08:24.698Z,13.02
2023-04-08T09:09:27.208Z,12.50
2023-04-08T09:10:29.042Z,13.73
2023-04-08T09:11:31.470Z,12.27
2023-04-08T09:12:34.036Z,13.05
2023-04-08T09:13:36.982Z,12.45
2023-04-08T09:14:41.445Z,12.77
2023-04-08T09:16:00.968Z,12.90
2023-04-08T09:17:03.554Z,12.65
2023-04-08T09:18:21.981Z,12.65
2023-04-08T09:19:24.569Z,11.73
2023-04-08T09:20:26.411Z,12.40
2023-04-08T09:21:28.979Z,13.18
2023-04-08T09:22:31.643Z,12.52
2023-04-08T09:23:41.030Z,13.45
2023-04-08T09:24:43.879Z,12.82
2023-04-08T09:25:45.392Z,13.05
2023-04-08T09:26:48.173Z,13.98
2023-04-08T09:27:49.741Z,13.15
2023-04-08T09:29:03.964Z,13.43
2023-04-08T09:30:15.262Z,14.48
2023-04-08T09:31:21.892Z,13.73
2023-04-08T09:32:24.572Z,14.52
2023-04-08T09:33:30.792Z,14.55
2023-04-08T09:34:34.397Z,14.48
2023-04-08T09:35:37.278Z,13.73
2023-04-08T09:36:39.101Z,14.52
2023-04-08T09:37:41.538Z,14.93
2023-04-08T09:38:43.441Z,14.80
2023-04-08T09:39:46.103Z,15.00
2023-04-08T09:40:47.693Z,15.20
2023-04-08T09:41:51.580Z,14.85
2023-04-08T09:42:56.201Z,14.85
2023-04-08T09:43:58.880Z,14.55
2023-04-08T09:45:05.751Z,14.50
2023-04-08T09:46:11.852Z,15.30
2023-04-08T09:47:28.907Z,14.73
2023-04-08T09:48:38.777Z,14.90
2023-04-08T09:49:47.649Z,15.33
2023-04-08T09:50:51.132Z,16.67
2023-04-08T09:52:00.836Z,16.17
2023-04-08T09:53:13.234Z,15.95
2023-04-08T09:54:19.425Z,16.40
2023-04-08T09:55:23.819Z,16.30
2023-04-08T09:56:30.920Z,17.08
2023-04-08T09:57:43.499Z,18.50
2023-04-08T09:58:52.861Z,17.15
2023-04-08T10:00:02.961Z,18.00
2023-04-08T10:01:06.898Z,16.05
2023-04-08T10:02:12.696Z,17.00
2023-04-08T10:03:23.706Z,15.57
2023-04-08T10:04:29.213Z,16.40
2023-04-08T10:05:31.619Z,16.85
2023-04-08T10:06:35.935Z,18.20
2023-04-08T10:07:37.728Z,18.23
2023-04-08T10:08:40.431Z,16.98
2023-04-08T10:09:43.216Z,17.88
2023-04-08T10:10:47.892Z,17.33
2023-04-08T10:11:50.575Z,16.98
2023-04-08T10:12:53.251Z,17.52
2023-04-08T10:13:54.948Z,18.23
2023-04-08T10:15:29.382Z,18.00
2023-04-08T10:16:32.023Z,19.02
2023-04-08T10:17:36.881Z,19.35
2023-04-08T10:18:39.443Z,19.15
2023-04-08T10:19:41.422Z,19.67
2023-04-08T10:20:45.736Z,18.83
2023-04-08T10:21:50.121Z,20.52
2023-04-08T10:22:51.675Z,21.88
2023-04-08T10:23:59.058Z,21.67
2023-04-08T10:25:32.723Z,22.60
2023-04-08T10:26:36.724Z,23.92
2023-04-08T10:27:42.706Z,24.13
2023-04-08T10:28:45.243Z,23.05
2023-04-08T10:29:48.381Z,23.58
2023-04-08T10:30:52.050Z,23.63
2023-04-08T10:31:53.679Z,24.45
2023-04-08T10:32:59.980Z,24.35
2023-04-08T10:34:17.171Z,24.05
2023-04-08T10:35:32.496Z,22.88
2023-04-08T10:36:35.305Z,23.45
2023-04-08T10:37:36.950Z,24.40
2023-04-08T10:38:40.212Z,23.90
2023-04-08T10:39:49.365Z,23.38
2023-04-08T10:40:52.437Z,23.80
2023-04-08T10:41:54.254Z,23.40
2023-04-08T10:42:56.733Z,21.30
2023-04-08T10:43:58.293Z,22.83
2023-04-08T10:45:02.610Z,23.23
2023-04-08T10:46:06.501Z,22.75
2023-04-08T10:47:09.013Z,22.80
2023-04-08T10:48:29.104Z,23.58
2023-04-08T10:49:34.299Z,22.85
2023-04-08T10:50:37.604Z,23.77
2023-04-08T10:51:40.092Z,21.95
2023-04-08T10:52:47.819Z,22.20
2023-04-08T10:53:50.306Z,20.98
2023-04-08T10:54:54.065Z,20.45
2023-04-08T10:56:03.291Z,20.48
2023-04-08T10:57:06.852Z,19.48
2023-04-08T10:58:09.688Z,21.80
2023-04-08T10:59:12.421Z,22.17
2023-04-08T11:00:19.501Z,19.95
2023-04-08T11:01:22.562Z,21.20
2023-04-08T11:02:33.798Z,21.05
2023-04-08T11:03:37.284Z,20.30
2023-04-08T11:04:42.847Z,20.05
2023-04-08T11:05:44.421Z,19.42
2023-04-08T11:06:48.398Z,20.45
2023-04-08T11:07:50.263Z,21.33
2023-04-08T11:08:52.739Z,20.50
2023-04-08T11:09:55.695Z,20.98
2023-04-08T11:10:58.359Z,21.48
2023-04-08T11:12:02.100Z,21.13
2023-04-08T11:13:03.714Z,21.88
2023-04-08T11:14:07.012Z,21.40
2023-04-08T11:15:10.574Z,21.63
2023-04-08T11:16:18.253Z,23.63
2023-04-08T11:17:21.451Z,21.92
2023-04-08T11:18:24.451Z,22.10
2023-04-08T11:19:28.329Z,22.83
2023-04-08T11:20:29.861Z,22.83
2023-04-08T11:21:32.952Z,21.75
2023-04-08T11:22:35.811Z,22.77
2023-04-08T11:23:38.468Z,22.08
2023-04-08T11:24:40.273Z,22.23
2023-04-08T11:25:43.025Z,22.58
2023-04-08T11:26:45.990Z,21.98
2023-04-08T11:27:49.248Z,22.80
2023-04-08T11:28:52.409Z,23.10
2023-04-08T11:29:56.216Z,24.25
2023-04-08T11:30:59.005Z,23.13
2023-04-08T11:32:01.687Z,22.98
2023-04-08T11:33:03.790Z,23.08
2023-04-08T11:34:06.226Z,22.10
2023-04-08T11:35:11.093Z,23.40
2023-04-08T11:36:13.114Z,22.90
2023-04-08T11:37:16.045Z,21.77
2023-04-08T11:38:23.805Z,22.45
2023-04-08T11:39:26.444Z,22.92
2023-04-08T11:40:30.024Z,23.00
2023-04-08T11:41:37.747Z,22.70
2023-04-08T11:42:39.796Z,23.48
2023-04-08T11:43:52.708Z,23.13
2023-04-08T11:44:55.593Z,22.75
2023-04-08T11:45:57.666Z,23.70
2023-04-08T11:47:02.028Z,22.65
2023-04-08T11:48:09.539Z,23.08
2023-04-08T11:49:12.239Z,21.67
2023-04-08T11:50:22.877Z,21.55
2023-04-08T11:51:25.388Z,16.55
2023-04-08T11:52:42.908Z,22.90
2023-04-08T11:53:48.007Z,23.38
2023-04-08T11:54:50.501Z,23.30
2023-04-08T11:55:52.441Z,23.17
2023-04-08T11:56:54.911Z,23.88
2023-04-08T11:57:57.852Z,21.40
2023-04-08T11:59:00.380Z,23.55
2023-04-08T12:00:01.914Z,23.05
2023-04-08T12:01:04.375Z,22.73
2023-04-08T12:02:06.916Z,23.05
2023-04-08T12:03:08.859Z,24.05
2023-04-08T12:04:12.152Z,24.08
2023-04-08T12:05:15.948Z,22.58
2023-04-08T12:06:18.629Z,24.25
2023-04-08T12:07:21.554Z,23.52
2023-04-08T12:08:24.232Z,24.65
2023-04-08T12:09:25.730Z,24.67
2023-04-08T12:10:28.178Z,23.60
2023-04-08T12:11:30.875Z,22.52
2023-04-08T12:12:33.361Z,22.95
2023-04-08T12:13:34.877Z,23.77
2023-04-08T12:14:37.309Z,23.20
2023-04-08T12:15:39.777Z,23.90
2023-04-08T12:16:41.354Z,22.98
2023-04-08T12:17:44.451Z,22.50
2023-04-08T12:18:46.805Z,21.88
2023-04-08T12:19:49.440Z,22.75
2023-04-08T12:20:54.761Z,21.95
2023-04-08T12:21:57.220Z,23.00
2023-04-08T12:22:58.768Z,22.00
2023-04-08T12:24:01.681Z,21.58
2023-04-08T12:25:04.143Z,22.15
2023-04-08T12:26:07.046Z,21.70
2023-04-08T12:27:09.932Z,21.75
2023-04-08T12:28:12.396Z,21.50
2023-04-08T12:29:13.907Z,21.55
2023-04-08T12:30:16.772Z,20.48
2023-04-08T12:31:18.409Z,22.33
2023-04-08T12:32:21.703Z,21.33
2023-04-08T12:33:23.371Z,20.75
2023-04-08T12:34:25.852Z,22.98
2023-04-08T12:35:27.354Z,22.05
2023-04-08T12:36:31.460Z,22.58
2023-04-08T12:37:33.476Z,20.67
2023-04-08T12:38:35.998Z,20.90
2023-04-08T12:39:38.247Z,22.13
2023-04-08T12:40:40.936Z,21.50
2023-04-08T12:41:42.874Z,20.83
2023-04-08T12:42:45.334Z,22.05
2023-04-08T12:43:47.899Z,22.10
2023-04-08T12:44:49.362Z,21.30
2023-04-08T12:45:52.974Z,21.60
2023-04-08T12:46:54.871Z,21.65
2023-04-08T12:47:57.401Z,21.02
2023-04-08T12:49:04.081Z,23.52
2023-04-08T12:50:09.828Z,23.92
2023-04-08T12:51:12.680Z,21.27
2023-04-08T12:52:15.496Z,21.35
2023-04-08T12:53:18.012Z,21.15
2023-04-08T12:54:19.580Z,21.10
2023-04-08T12:55:25.131Z,23.92
2023-04-08T12:56:27.775Z,23.77
2023-04-08T12:57:31.996Z,21.90
2023-04-08T12:58:34.783Z,22.25
2023-04-08T12:59:38.019Z,20.38
2023-04-08T13:00:46.227Z,20.10
2023-04-08T13:01:48.755Z,20.48
2023-04-08T13:02:50.508Z,21.85
2023-04-08T13:03:53.101Z,19.52
2023-04-08T13:04:55.246Z,20.23
2023-04-08T13:06:00.656Z,20.52
2023-04-08T13:07:04.362Z,20.02
2023-04-08T13:08:07.301Z,18.83
2023-04-08T13:09:10.815Z,19.30
2023-04-08T13:10:12.326Z,19.02
2023-04-08T13:11:15.062Z,20.58
2023-04-08T13:12:17.218Z,19.70
2023-04-08T13:13:19.655Z,19.17
2023-04-08T13:14:22.762Z,20.20
2023-04-08T13:15:25.893Z,20.67
2023-04-08T13:16:30.476Z,19.65
2023-04-08T13:17:32.333Z,19.23
2023-04-08T13:18:34.908Z,18.83
2023-04-08T13:19:37.146Z,18.77
2023-04-08T13:20:42.860Z,19.38
2023-04-08T13:21:46.228Z,18.50
2023-04-08T13:22:49.221Z,18.02
2023-04-08T13:23:53.158Z,18.58
2023-04-08T13:24:55.625Z,19.23
2023-04-08T13:25:58.086Z,19.77
2023-04-08T13:26:59.606Z,18.75
2023-04-08T13:28:02.160Z,19.25
2023-04-08T13:29:04.986Z,19.73
2023-04-08T13:30:09.307Z,19.02
2023-04-08T13:31:11.361Z,18.20
2023-04-08T13:32:13.998Z,18.88
2023-04-08T13:33:15.747Z,19.77
2023-04-08T13:34:18.199Z,19.02
2023-04-08T13:35:19.793Z,18.65
2023-04-08T13:36:22.306Z,18.92
2023-04-08T13:37:23.886Z,18.73
2023-04-08T13:38:26.310Z,19.15
2023-04-08T13:39:30.303Z,19.73
2023-04-08T13:40:33.256Z,18.35
2023-04-08T13:41:35.913Z,18.35
2023-04-08T13:42:39.178Z,17.98
2023-04-08T13:43:41.275Z,18.92
2023-04-08T13:44:43.710Z,17.75
2023-04-08T13:45:46.354Z,18.38
2023-04-08T13:46:48.792Z,18.27
2023-04-08T13:47:50.492Z,19.00
2023-04-08T13:48:53.268Z,19.13
2023-04-08T13:49:54.966Z,18.50
2023-04-08T13:50:57.437Z,18.02
2023-04-08T13:51:58.932Z,19.38